createdAt,value
2019-05-18T00:00:56.946Z,23.83
2019-05-18T00:03:26.492Z,25.47
2019-05-18T00:05:55.669Z,25.03
2019-05-18T00:08:25.189Z,26.47
2019-05-18T00:10:54.975Z,24.77
2019-05-18T00:13:24.666Z,23.07
2019-05-18T00:15:53.841Z,24.17
2019-05-18T00:18:23.461Z,25.50
2019-05-18T00:20:52.766Z,25.13
2019-05-18T00:23:22.019Z,25.33
2019-05-18T00:25:51.265Z,27.33
2019-05-18T00:28:20.742Z,28.87
2019-05-18T00:30:50.848Z,28.33
2019-05-18T00:33:20.155Z,27.77
2019-05-18T00:35:49.687Z,27.87
2019-05-18T00:38:19.303Z,28.57
2019-05-18T00:40:48.857Z,30.90
2019-05-18T00:43:18.023Z,29.83
2019-05-18T00:45:47.197Z,30.07
2019-05-18T00:48:16.448Z,30.47
2019-05-18T00:50:46.379Z,30.80
2019-05-18T00:53:16.089Z,30.40
2019-05-18T00:55:45.591Z,32.27
2019-05-18T00:58:14.770Z,31.47
2019-05-18T01:00:44.146Z,31.47
2019-05-18T01:03:13.304Z,32.07
2019-05-18T01:05:42.499Z,31.87
2019-05-18T01:08:11.659Z,32.93
2019-05-18T01:10:41.567Z,32.43
2019-05-18T01:13:10.837Z,31.57
2019-05-18T01:15:40.045Z,32.03
2019-05-18T01:18:09.282Z,31.53
2019-05-18T01:20:38.552Z,32.73
2019-05-18T01:23:08.231Z,30.70
2019-05-18T01:25:37.755Z,32.27
2019-05-18T01:28:07.334Z,31.20
2019-05-18T01:30:36.863Z,29.47
2019-05-18T01:33:06.175Z,26.70
2019-05-18T01:35:35.346Z,26.33
2019-05-18T01:38:04.739Z,26.60
2019-05-18T01:40:33.908Z,25.00
2019-05-18T01:43:03.153Z,28.40
2019-05-18T01:45:32.463Z,25.90
2019-05-18T01:48:13.273Z,27.27
2019-05-18T01:50:32.538Z,25.60
2019-05-18T01:53:01.829Z,25.53
2019-05-18T01:55:31.382Z,27.37
2019-05-18T01:58:00.643Z,26.47
2019-05-18T02:00:30.272Z,26.33
2019-05-18T02:02:59.904Z,27.23
2019-05-18T02:05:29.212Z,28.47
2019-05-18T02:07:58.598Z,29.77
2019-05-18T02:10:27.818Z,27.23
2019-05-18T02:12:57.729Z,26.60
2019-05-18T02:15:26.965Z,25.90
2019-05-18T02:17:56.111Z,26.73
2019-05-18T02:20:25.624Z,27.97
2019-05-18T02:22:54.780Z,28.23
2019-05-18T02:25:24.026Z,27.60
2019-05-18T02:27:53.472Z,30.53
2019-05-18T02:30:22.946Z,28.17
2019-05-18T02:32:52.543Z,26.63
2019-05-18T02:35:21.865Z,26.20
2019-05-18T02:37:51.185Z,25.30
2019-05-18T02:40:20.916Z,26.67
2019-05-18T02:42:50.242Z,27.63
2019-05-18T02:45:19.491Z,27.33
2019-05-18T02:47:48.738Z,27.87
2019-05-18T02:50:17.970Z,28.07
2019-05-18T02:52:47.750Z,28.20
2019-05-18T02:55:17.005Z,29.87
2019-05-18T02:57:46.181Z,31.93
2019-05-18T03:00:16.001Z,34.03
2019-05-18T03:02:45.247Z,33.57
2019-05-18T03:05:15.090Z,30.30
2019-05-18T03:07:44.388Z,31.80
2019-05-18T03:10:14.277Z,29.20
2019-05-18T03:12:43.811Z,27.90
2019-05-18T03:15:13.618Z,29.97
2019-05-18T03:17:42.868Z,25.27
2019-05-18T03:20:12.485Z,27.77
2019-05-18T03:22:41.781Z,28.00
2019-05-18T03:25:11.461Z,29.60
2019-05-18T03:27:41.072Z,30.53
2019-05-18T03:30:11.072Z,31.40
2019-05-18T03:32:40.702Z,29.33
2019-05-18T03:35:10.490Z,30.27
2019-05-18T03:37:39.791Z,27.27
2019-05-18T03:40:09.153Z,29.00
2019-05-18T03:42:38.552Z,25.53
2019-05-18T03:45:08.608Z,28.23
2019-05-18T03:47:37.797Z,28.37
2019-05-18T03:50:07.333Z,27.87
2019-05-18T03:52:36.591Z,26.83
2019-05-18T03:55:07.211Z,27.43
2019-05-18T03:57:36.390Z,27.90
2019-05-18T04:00:06.042Z,26.63
2019-05-18T04:02:35.597Z,27.10
2019-05-18T04:05:05.504Z,28.17
2019-05-18T04:07:35.024Z,26.53
2019-05-18T04:10:04.647Z,30.03
2019-05-18T04:12:33.901Z,30.23
2019-05-18T04:15:03.143Z,31.03
2019-05-18T04:17:32.473Z,31.53
2019-05-18T04:20:02.009Z,31.87
2019-05-18T04:22:31.309Z,32.07
2019-05-18T04:25:00.837Z,30.00
2019-05-18T04:27:30.146Z,30.67
2019-05-18T04:29:59.814Z,31.57
2019-05-18T04:32:29.024Z,29.07
2019-05-18T04:34:58.922Z,31.43
2019-05-18T04:37:28.152Z,34.73
2019-05-18T04:39:57.352Z,34.37
2019-05-18T04:42:26.871Z,36.17
2019-05-18T04:44:56.218Z,37.57
2019-05-18T04:47:25.465Z,39.67
2019-05-18T04:50:05.401Z,40.13
2019-05-18T04:52:25.883Z,41.30
2019-05-18T04:54:55.124Z,39.37
2019-05-18T04:57:24.357Z,39.57
2019-05-18T04:59:54.143Z,40.10
2019-05-18T05:02:23.402Z,43.63
2019-05-18T05:04:56.414Z,43.37
2019-05-18T05:07:23.873Z,43.00
2019-05-18T05:09:53.117Z,43.13
2019-05-18T05:12:22.566Z,42.60
2019-05-18T05:14:51.743Z,43.63
2019-05-18T05:17:20.904Z,43.93
2019-05-18T05:19:50.119Z,42.03
2019-05-18T05:22:19.698Z,41.90
2019-05-18T05:24:49.021Z,41.07
2019-05-18T05:27:18.598Z,42.10
2019-05-18T05:29:48.193Z,40.27
2019-05-18T05:32:17.822Z,40.77
2019-05-18T05:34:47.001Z,42.83
2019-05-18T05:37:16.626Z,42.90
2019-05-18T05:39:46.210Z,41.60
2019-05-18T05:42:15.411Z,40.57
2019-05-18T05:44:44.691Z,40.20
2019-05-18T05:47:14.061Z,42.33
2019-05-18T05:49:43.299Z,40.53
2019-05-18T05:52:12.492Z,42.27
2019-05-18T05:54:42.024Z,42.07
2019-05-18T05:57:11.204Z,42.63
2019-05-18T05:59:40.389Z,42.13
2019-05-18T06:02:09.592Z,43.23
2019-05-18T06:04:38.832Z,44.40
2019-05-18T06:07:08.102Z,44.20
2019-05-18T06:09:37.416Z,43.17
2019-05-18T06:12:06.655Z,42.23
2019-05-18T06:14:35.875Z,42.27
2019-05-18T06:17:08.321Z,40.20
2019-05-18T06:19:36.697Z,40.13
2019-05-18T06:22:05.905Z,42.90
2019-05-18T06:24:35.148Z,42.13
2019-05-18T06:27:04.762Z,42.07
2019-05-18T06:29:34.312Z,41.83
2019-05-18T06:32:03.908Z,43.17
2019-05-18T06:34:33.736Z,42.87
2019-05-18T06:37:02.976Z,43.00
2019-05-18T06:39:32.155Z,43.00
2019-05-18T06:42:01.312Z,39.47
2019-05-18T06:44:30.916Z,34.93
2019-05-18T06:47:00.090Z,42.40
2019-05-18T06:49:29.414Z,42.87
2019-05-18T06:51:58.982Z,44.73
2019-05-18T06:54:28.537Z,42.87
2019-05-18T06:56:59.798Z,42.50
2019-05-18T06:59:29.439Z,40.53
2019-05-18T07:01:58.898Z,39.70
2019-05-18T07:04:28.135Z,41.23
2019-05-18T07:06:57.309Z,42.17
2019-05-18T07:09:26.925Z,41.03
2019-05-18T07:11:56.594Z,43.83
2019-05-18T07:15:28.195Z,43.27
2019-05-18T07:17:59.505Z,40.70
2019-05-18T07:20:28.832Z,40.60
2019-05-18T07:23:00.223Z,39.53
2019-05-18T07:25:29.479Z,41.50
2019-05-18T07:27:58.655Z,41.67
2019-05-18T07:30:28.598Z,41.43
2019-05-18T07:32:58.164Z,40.80
2019-05-18T07:35:27.828Z,40.43
2019-05-18T07:37:57.388Z,40.10
2019-05-18T07:40:26.554Z,40.60
2019-05-18T07:42:56.185Z,41.07
2019-05-18T07:45:26.151Z,38.80
2019-05-18T07:47:55.486Z,41.13
2019-05-18T07:50:26.138Z,40.57
2019-05-18T07:52:55.852Z,40.87
2019-05-18T07:55:25.485Z,39.00
2019-05-18T07:57:54.897Z,39.77
2019-05-18T08:00:24.064Z,37.50
2019-05-18T08:02:53.259Z,38.80
2019-05-18T08:05:22.665Z,39.77
2019-05-18T08:07:51.871Z,40.73
2019-05-18T08:10:37.246Z,38.50
2019-05-18T08:13:07.607Z,39.13
2019-05-18T08:15:37.496Z,38.27
2019-05-18T08:18:07.329Z,36.67
2019-05-18T08:20:36.933Z,37.60
2019-05-18T08:23:06.175Z,38.93
2019-05-18T08:25:35.497Z,38.53
2019-05-18T08:28:04.824Z,37.43
2019-05-18T08:30:34.042Z,36.33
2019-05-18T08:33:03.236Z,36.27
2019-05-18T08:35:32.503Z,36.57
2019-05-18T08:38:02.088Z,36.63
2019-05-18T08:40:31.307Z,39.23
2019-05-18T08:43:01.161Z,38.70
2019-05-18T08:45:30.487Z,37.10
2019-05-18T08:47:59.750Z,37.73
2019-05-18T08:50:29.083Z,35.90
2019-05-18T08:52:58.706Z,36.93
2019-05-18T08:55:27.877Z,37.10
2019-05-18T08:57:57.501Z,36.63
2019-05-18T09:00:26.704Z,34.63
2019-05-18T09:02:56.014Z,36.90
2019-05-18T09:05:25.186Z,36.93
2019-05-18T09:07:54.511Z,36.17
2019-05-18T09:10:24.275Z,36.07
2019-05-18T09:12:53.774Z,35.50
2019-05-18T09:15:23.075Z,36.07
2019-05-18T09:17:52.478Z,34.80
2019-05-18T09:20:21.826Z,34.87
2019-05-18T09:22:51.072Z,31.77
2019-05-18T09:25:22.027Z,33.00
2019-05-18T09:27:51.292Z,32.37
2019-05-18T09:30:20.857Z,34.50
2019-05-18T09:32:50.253Z,33.63
2019-05-18T09:35:20.006Z,35.43
2019-05-18T09:37:49.238Z,34.40
2019-05-18T09:40:18.915Z,33.93
2019-05-18T09:42:48.150Z,34.83
2019-05-18T09:45:17.778Z,33.63
2019-05-18T09:47:46.979Z,33.67
2019-05-18T09:50:16.513Z,32.57
2019-05-18T09:52:46.463Z,33.23
2019-05-18T09:55:16.628Z,34.73
2019-05-18T09:57:45.800Z,33.73
2019-05-18T10:00:15.311Z,34.13
2019-05-18T10:02:44.644Z,32.57
2019-05-18T10:05:14.047Z,33.73
2019-05-18T10:07:43.634Z,33.40
2019-05-18T10:10:13.575Z,31.77
2019-05-18T10:12:42.907Z,31.77
2019-05-18T10:15:12.966Z,33.10
2019-05-18T10:17:42.353Z,32.07
2019-05-18T10:20:12.903Z,33.50
2019-05-18T10:22:55.061Z,33.00
2019-05-18T10:25:13.270Z,31.47
2019-05-18T10:27:42.867Z,32.73
2019-05-18T10:30:12.309Z,33.40
2019-05-18T10:32:41.591Z,32.30
2019-05-18T10:35:11.261Z,32.60
2019-05-18T10:37:40.605Z,32.07
2019-05-18T10:40:10.661Z,32.07
2019-05-18T10:42:40.382Z,31.83
2019-05-18T10:45:10.492Z,31.90
2019-05-18T10:47:39.742Z,31.57
2019-05-18T10:50:09.940Z,32.70
2019-05-18T10:52:39.632Z,33.23
2019-05-18T10:55:09.270Z,31.07
2019-05-18T10:57:38.904Z,30.73
2019-05-18T11:00:10.352Z,32.00
2019-05-18T11:02:39.868Z,31.17
2019-05-18T11:05:10.609Z,30.73
2019-05-18T11:07:40.205Z,29.70
2019-05-18T11:10:10.959Z,30.10
2019-05-18T11:12:40.350Z,30.10
2019-05-18T11:15:11.233Z,31.53
2019-05-18T11:17:40.479Z,30.87
2019-05-18T11:20:10.559Z,30.73
2019-05-18T11:22:40.147Z,31.43
2019-05-18T11:25:10.814Z,29.03
2019-05-18T11:27:40.225Z,26.00
2019-05-18T11:30:10.561Z,26.63
2019-05-18T11:32:39.992Z,24.23
2019-05-18T11:35:10.007Z,27.03
2019-05-18T11:37:40.062Z,24.27
2019-05-18T11:40:12.078Z,21.63
2019-05-18T11:42:41.699Z,23.70
2019-05-18T11:45:12.188Z,23.23
2019-05-18T11:47:41.495Z,22.47
2019-05-18T11:50:11.397Z,27.10
2019-05-18T11:52:40.619Z,27.27
2019-05-18T11:55:10.430Z,24.67
2019-05-18T11:57:39.673Z,22.50
2019-05-18T12:00:10.769Z,21.90
2019-05-18T12:02:40.044Z,18.43
2019-05-18T12:05:09.969Z,20.33
2019-05-18T12:07:39.205Z,21.17
2019-05-18T12:10:09.616Z,20.80
2019-05-18T12:12:40.513Z,18.60
2019-05-18T12:15:10.750Z,15.40
2019-05-18T12:17:40.645Z,17.30
2019-05-18T12:20:10.498Z,18.53
2019-05-18T12:22:39.779Z,13.80
2019-05-18T12:25:09.916Z,12.83
2019-05-18T12:27:39.864Z,18.90
2019-05-18T12:30:10.673Z,19.83
2019-05-18T12:32:39.887Z,19.27
2019-05-18T12:35:09.441Z,17.90
2019-05-18T12:37:38.714Z,15.83
2019-05-18T12:40:10.184Z,15.67
2019-05-18T12:42:39.492Z,15.70
2019-05-18T12:45:10.312Z,16.47
2019-05-18T12:47:39.589Z,15.80
2019-05-18T12:50:09.498Z,16.20
2019-05-18T12:52:38.760Z,15.60
2019-05-18T12:55:09.518Z,14.67
2019-05-18T12:57:39.009Z,14.80
2019-05-18T13:00:08.737Z,15.50
2019-05-18T13:02:38.044Z,14.50
2019-05-18T13:05:10.035Z,10.87
2019-05-18T13:07:39.247Z,10.10
2019-05-18T13:10:11.438Z,10.40
2019-05-18T13:12:40.683Z,12.23
2019-05-18T13:15:11.017Z,10.90
2019-05-18T13:17:40.716Z,10.03
2019-05-18T13:20:11.222Z,9.10
2019-05-18T13:22:40.702Z,9.80
2019-05-18T13:25:11.108Z,8.50
2019-05-18T13:27:40.448Z,8.47
2019-05-18T13:30:11.390Z,8.70
2019-05-18T13:32:40.725Z,11.37
2019-05-18T13:35:10.350Z,11.17
2019-05-18T13:37:39.697Z,11.33
2019-05-18T13:40:10.662Z,10.33
2019-05-18T13:42:39.919Z,9.93
2019-05-18T13:45:10.240Z,10.50
2019-05-18T13:47:40.080Z,10.23
2019-05-18T13:50:09.690Z,9.80
2019-05-18T13:52:39.626Z,9.17
2019-05-18T13:55:09.390Z,8.07
2019-05-18T13:57:38.701Z,7.87
2019-05-18T14:00:09.438Z,7.70
2019-05-18T14:02:38.658Z,7.80
2019-05-18T14:05:08.496Z,6.83
2019-05-18T14:07:38.535Z,6.00
2019-05-18T14:10:12.246Z,7.50
2019-05-18T14:12:40.172Z,7.43
2019-05-18T14:15:10.408Z,7.07
2019-05-18T14:17:39.705Z,5.87
2019-05-18T14:20:09.384Z,5.33
2019-05-18T14:22:38.574Z,5.43
2019-05-18T14:25:18.680Z,6.40
2019-05-18T14:27:39.260Z,5.27
2019-05-18T14:30:09.215Z,6.37
2019-05-18T14:32:38.445Z,5.50
2019-05-18T14:35:08.747Z,5.67
2019-05-18T14:37:37.944Z,5.43
2019-05-18T14:40:07.913Z,5.10
2019-05-18T14:42:37.170Z,5.17
2019-05-18T14:45:07.766Z,6.30
2019-05-18T14:47:37.122Z,5.63
2019-05-18T14:50:07.979Z,4.90
2019-05-18T14:52:37.925Z,4.90
2019-05-18T14:55:08.071Z,4.90
2019-05-18T14:57:37.304Z,5.13
2019-05-18T15:00:07.833Z,5.50
2019-05-18T15:02:38.864Z,4.80
2019-05-18T15:05:08.774Z,4.97
2019-05-18T15:07:38.046Z,4.50
2019-05-18T15:10:07.521Z,4.90
2019-05-18T15:12:36.772Z,5.00
2019-05-18T15:15:07.046Z,4.80
2019-05-18T15:17:36.584Z,5.37
2019-05-18T15:20:06.722Z,5.60
2019-05-18T15:22:35.907Z,5.00
2019-05-18T15:25:05.367Z,4.60
2019-05-18T15:27:35.098Z,5.00
2019-05-18T15:30:04.517Z,5.20
2019-05-18T15:32:34.419Z,5.10
2019-05-18T15:35:03.937Z,5.10
2019-05-18T15:37:33.617Z,5.20
2019-05-18T15:40:03.257Z,4.17
2019-05-18T15:42:32.824Z,4.93
2019-05-18T15:45:02.465Z,4.60
2019-05-18T15:47:31.940Z,4.60
2019-05-18T15:50:01.690Z,5.50
2019-05-18T15:52:31.022Z,5.37
2019-05-18T15:55:00.297Z,5.00
2019-05-18T15:57:29.495Z,4.73
2019-05-18T15:59:59.188Z,5.33
2019-05-18T16:02:29.001Z,4.73
2019-05-18T16:04:58.339Z,5.80
2019-05-18T16:07:27.988Z,5.60
2019-05-18T16:09:57.291Z,5.47
2019-05-18T16:12:26.454Z,6.30
2019-05-18T16:14:55.648Z,5.17
2019-05-18T16:17:38.469Z,4.70
2019-05-18T16:19:55.828Z,5.27
2019-05-18T16:22:25.724Z,5.20
2019-05-18T16:24:55.678Z,5.27
2019-05-18T16:27:24.988Z,4.97
2019-05-18T16:29:54.272Z,4.93
2019-05-18T16:32:23.568Z,4.60
2019-05-18T16:34:52.830Z,4.90
2019-05-18T16:37:22.818Z,4.10
2019-05-18T16:39:52.736Z,4.87
2019-05-18T16:42:22.016Z,5.07
2019-05-18T16:44:52.238Z,4.70
2019-05-18T16:47:22.163Z,5.43
2019-05-18T16:49:51.400Z,5.40
2019-05-18T16:52:21.272Z,7.33
2019-05-18T16:54:50.737Z,7.90
2019-05-18T16:57:20.283Z,7.77
2019-05-18T16:59:49.460Z,8.90
2019-05-18T17:02:31.070Z,8.90
2019-05-18T17:04:49.571Z,8.97
2019-05-18T17:07:18.896Z,9.20
2019-05-18T17:09:48.068Z,10.03
2019-05-18T17:12:17.384Z,10.47
2019-05-18T17:14:46.604Z,10.43
2019-05-18T17:17:16.235Z,10.23
2019-05-18T17:19:45.887Z,11.50
2019-05-18T17:22:15.591Z,11.37
2019-05-18T17:24:45.192Z,11.00
2019-05-18T17:27:15.178Z,11.30
2019-05-18T17:29:44.359Z,11.17
2019-05-18T17:32:13.654Z,12.50
2019-05-18T17:34:42.939Z,13.00
2019-05-18T17:37:12.203Z,13.07
2019-05-18T17:39:41.485Z,12.53
2019-05-18T17:42:10.730Z,12.87
2019-05-18T17:44:40.123Z,12.77
2019-05-18T17:47:09.511Z,11.77
2019-05-18T17:49:38.777Z,11.27
2019-05-18T17:52:08.249Z,11.07
2019-05-18T17:54:37.559Z,10.97
2019-05-18T17:57:08.937Z,11.50
2019-05-18T17:59:38.458Z,10.40
2019-05-18T18:02:07.792Z,11.27
2019-05-18T18:04:37.317Z,11.03
2019-05-18T18:07:06.947Z,12.43
2019-05-18T18:09:36.465Z,12.20
2019-05-18T18:12:05.665Z,11.53
2019-05-18T18:14:35.309Z,11.23
2019-05-18T18:17:04.859Z,10.73
2019-05-18T18:19:34.385Z,11.60
2019-05-18T18:22:03.757Z,12.10
2019-05-18T18:24:33.003Z,12.87
2019-05-18T18:27:02.532Z,13.63
2019-05-18T18:29:31.841Z,13.03
2019-05-18T18:32:01.497Z,12.20
2019-05-18T18:34:31.214Z,12.60
2019-05-18T18:37:00.547Z,12.27
2019-05-18T18:39:29.870Z,11.03
2019-05-18T18:41:59.566Z,10.77
2019-05-18T18:44:28.939Z,11.83
2019-05-18T18:46:58.171Z,12.47
2019-05-18T18:49:27.758Z,12.07
2019-05-18T18:51:57.051Z,11.93
2019-05-18T18:54:26.542Z,11.90
2019-05-18T18:56:55.901Z,11.90
2019-05-18T18:59:25.540Z,11.03
2019-05-18T19:01:54.776Z,11.60
2019-05-18T19:04:24.049Z,10.60
2019-05-18T19:06:53.308Z,10.03
2019-05-18T19:09:23.083Z,10.30
2019-05-18T19:11:52.275Z,10.17
2019-05-18T19:14:21.622Z,10.20
2019-05-18T19:16:51.219Z,9.63
2019-05-18T19:19:20.420Z,9.60
2019-05-18T19:21:49.991Z,8.73
2019-05-18T19:24:19.252Z,9.20
2019-05-18T19:26:48.567Z,8.87
2019-05-18T19:29:18.410Z,8.67
2019-05-18T19:31:47.665Z,8.83
2019-05-18T19:34:17.266Z,8.10
2019-05-18T19:36:46.464Z,8.47
2019-05-18T19:39:15.638Z,8.43
2019-05-18T19:41:45.133Z,8.00
2019-05-18T19:44:14.442Z,7.73
2019-05-18T19:46:43.707Z,7.60
2019-05-18T19:49:12.971Z,7.73
2019-05-18T19:51:42.338Z,7.30
2019-05-18T19:54:11.947Z,8.00
2019-05-18T19:56:43.257Z,8.60
2019-05-18T19:59:12.458Z,8.03
2019-05-18T20:01:42.590Z,7.97
2019-05-18T20:04:12.259Z,8.13
2019-05-18T20:06:41.589Z,8.47
2019-05-18T20:09:11.091Z,8.10
2019-05-18T20:11:40.322Z,7.23
2019-05-18T20:14:09.574Z,7.73
2019-05-18T20:16:38.850Z,7.37
2019-05-18T20:19:08.084Z,7.80
2019-05-18T20:21:37.348Z,7.87
2019-05-18T20:24:06.622Z,8.50
2019-05-18T20:26:35.970Z,9.07
2019-05-18T20:29:05.304Z,9.30
2019-05-18T20:31:34.495Z,8.83
2019-05-18T20:34:04.131Z,10.33
2019-05-18T20:36:33.406Z,10.07
2019-05-18T20:39:03.449Z,10.83
2019-05-18T20:41:32.644Z,11.70
2019-05-18T20:44:02.215Z,11.30
2019-05-18T20:46:31.456Z,11.17
2019-05-18T20:49:00.776Z,12.10
2019-05-18T20:51:30.002Z,11.83
2019-05-18T20:53:59.565Z,12.27
2019-05-18T20:56:28.934Z,13.27
2019-05-18T20:58:58.392Z,13.40
2019-05-18T21:01:27.620Z,12.23
2019-05-18T21:03:57.168Z,12.80
2019-05-18T21:06:26.426Z,12.60
2019-05-18T21:08:55.687Z,11.50
2019-05-18T21:11:24.884Z,12.13
2019-05-18T21:13:57.139Z,12.40
2019-05-18T21:16:24.985Z,12.20
2019-05-18T21:18:54.949Z,12.23
2019-05-18T21:21:25.830Z,12.10
2019-05-18T21:23:55.339Z,11.97
2019-05-18T21:26:24.589Z,11.90
2019-05-18T21:28:59.361Z,12.73
2019-05-18T21:31:25.007Z,12.53
2019-05-18T21:33:54.360Z,13.73
2019-05-18T21:36:23.604Z,13.07
2019-05-18T21:38:53.240Z,12.80
2019-05-18T21:41:22.492Z,12.23
2019-05-18T21:43:51.766Z,12.80
2019-05-18T21:46:21.010Z,12.97
2019-05-18T21:48:50.650Z,13.57
2019-05-18T21:51:19.895Z,17.83
2019-05-18T21:53:49.525Z,18.87
2019-05-18T21:56:19.099Z,17.80
2019-05-18T21:58:48.411Z,21.00
2019-05-18T22:01:17.986Z,23.70
2019-05-18T22:03:48.317Z,25.27
2019-05-18T22:06:18.270Z,25.70
2019-05-18T22:08:47.517Z,25.17
2019-05-18T22:11:16.708Z,24.23
2019-05-18T22:13:46.193Z,25.70
2019-05-18T22:16:15.435Z,27.63
2019-05-18T22:18:44.619Z,29.00
2019-05-18T22:21:13.988Z,31.53
2019-05-18T22:23:43.320Z,30.57
2019-05-18T22:26:12.555Z,30.93
2019-05-18T22:28:41.727Z,33.20
2019-05-18T22:31:10.930Z,32.63
2019-05-18T22:33:40.555Z,33.17
2019-05-18T22:36:09.766Z,33.10
2019-05-18T22:38:39.215Z,33.47
2019-05-18T22:41:08.399Z,34.43
2019-05-18T22:43:37.937Z,35.40
2019-05-18T22:46:07.155Z,38.23
2019-05-18T22:48:41.366Z,39.53
2019-05-18T22:51:07.892Z,41.77
2019-05-18T22:53:37.147Z,41.80
2019-05-18T22:56:06.303Z,44.40
2019-05-18T22:58:35.847Z,44.23
2019-05-18T23:01:05.093Z,43.13
2019-05-18T23:03:34.391Z,44.07
2019-05-18T23:06:03.619Z,48.23
2019-05-18T23:08:32.882Z,45.50
2019-05-18T23:11:02.057Z,45.87
2019-05-18T23:13:31.591Z,45.63
2019-05-18T23:16:01.111Z,44.93
2019-05-18T23:18:30.711Z,45.70
2019-05-18T23:20:59.864Z,46.47
2019-05-18T23:23:29.432Z,44.67
2019-05-18T23:25:58.756Z,47.17
2019-05-18T23:28:28.027Z,46.50
2019-05-18T23:30:57.617Z,47.03
2019-05-18T23:33:27.221Z,46.87
2019-05-18T23:35:56.487Z,50.77
2019-05-18T23:38:25.765Z,48.97
2019-05-18T23:40:55.432Z,51.23
2019-05-18T23:43:24.689Z,49.13
2019-05-18T23:45:54.183Z,50.17
2019-05-18T23:48:23.452Z,51.53
2019-05-18T23:50:52.764Z,48.30
2019-05-18T23:53:21.921Z,49.63
2019-05-18T23:55:51.112Z,49.63
2019-05-18T23:58:20.646Z,50.53
